Time;durP1;ratioP1;P1;durP2;ratioP2;P2;SDS_P1;SDS_P2;PMS_P1;PMS_P2;Temp;Humidity;BMP_temperature;BMP_pressure;BME280_temperature;BME280_humidity;BME280_pressure;Samples;Min_cycle;Max_cycle;Signal;HPM_P1;HPM_P2
2023/01/01 00:01:28;;;;;;;0.80;0.80;;;;;;;;;;4879167;29;20447;-75
2023/01/01 00:03:57;;;;;;;0.80;0.80;;;;;;;;;;4883883;29;20901;-77
2023/01/01 00:06:23;;;;;;;0.80;0.80;;;;;;;;;;4887055;29;20848;-76
2023/01/01 00:11:42;;;;;;;0.77;0.77;;;;;;;;;;4868348;29;20464;-76
2023/01/01 00:14:09;;;;;;;0.93;0.93;;;;;;;;;;4885262;29;20435;-76
2023/01/01 00:16:38;;;;;;;0.70;0.60;;;;;;;;;;4884944;29;20475;-77
2023/01/01 00:19:05;;;;;;;1.20;1.10;;;;;;;;;;4889640;29;20493;-77
2023/01/01 00:21:32;;;;;;;0.80;0.80;;;;;;;;;;4893940;29;20453;-76
2023/01/01 00:23:59;;;;;;;0.80;0.77;;;;;;;;;;4902194;29;20455;-77
2023/01/01 00:26:26;;;;;;;0.70;0.70;;;;;;;;;;4887678;29;20470;-76
2023/01/01 00:29:02;;;;;;;0.97;0.93;;;;;;;;;;4888179;29;20522;-77
2023/01/01 00:31:29;;;;;;;0.70;0.70;;;;;;;;;;4881617;29;20540;-76
2023/01/01 00:33:57;;;;;;;2.03;1.53;;;;;;;;;;4887051;29;21044;-76
2023/01/01 00:36:25;;;;;;;1.17;1.07;;;;;;;;;;4879065;29;20438;-77
2023/01/01 00:38:51;;;;;;;2.30;2.20;;;;;;;;;;4883349;29;20846;-76
2023/01/01 00:41:19;;;;;;;0.90;0.90;;;;;;;;;;4887225;29;20972;-76
2023/01/01 00:43:49;;;;;;;0.73;0.70;;;;;;;;;;4893693;29;20435;-76
2023/01/01 00:46:18;;;;;;;1.10;1.00;;;;;;;;;;4887321;29;20472;-77
2023/01/01 00:48:46;;;;;;;1.47;1.37;;;;;;;;;;4879013;29;20463;-76
2023/01/01 00:51:14;;;;;;;0.70;0.60;;;;;;;;;;4887331;29;21260;-76
2023/01/01 00:53:40;;;;;;;0.97;0.97;;;;;;;;;;4887364;29;20450;-75
2023/01/01 00:56:08;;;;;;;0.97;0.90;;;;;;;;;;4901193;29;20487;-76
2023/01/01 00:58:35;;;;;;;0.80;0.80;;;;;;;;;;4888140;29;20459;-76
2023/01/01 01:01:01;;;;;;;1.23;1.13;;;;;;;;;;4892647;29;20447;-75
2023/01/01 01:03:30;;;;;;;0.70;0.60;;;;;;;;;;4893682;29;20480;-76
2023/01/01 01:05:58;;;;;;;0.70;0.70;;;;;;;;;;4884000;29;20578;-76
2023/01/01 01:08:26;;;;;;;0.70;0.60;;;;;;;;;;4896411;29;20854;-75
2023/01/01 01:11:03;;;;;;;0.70;0.63;;;;;;;;;;4886735;29;20595;-76
2023/01/01 01:13:30;;;;;;;0.80;0.80;;;;;;;;;;4885619;29;20451;-76
2023/01/01 01:15:56;;;;;;;0.70;0.60;;;;;;;;;;4884607;29;20784;-76
2023/01/01 01:18:23;;;;;;;0.83;0.83;;;;;;;;;;4886797;29;20464;-76
2023/01/01 01:20:52;;;;;;;0.80;0.77;;;;;;;;;;4886974;29;20554;-75
2023/01/01 01:23:19;;;;;;;0.70;0.70;;;;;;;;;;4892042;29;20454;-75
2023/01/01 01:25:46;;;;;;;9.60;1.67;;;;;;;;;;4887794;29;20468;-76
2023/01/01 01:28:12;;;;;;;0.80;0.70;;;;;;;;;;4884400;29;20531;-76
2023/01/01 01:30:39;;;;;;;0.80;0.80;;;;;;;;;;4891457;29;20506;-75
2023/01/01 01:33:06;;;;;;;0.70;0.70;;;;;;;;;;4883429;29;20566;-76
2023/01/01 01:35:33;;;;;;;0.70;0.60;;;;;;;;;;4885132;29;20984;-76
2023/01/01 01:38:01;;;;;;;0.70;0.60;;;;;;;;;;4892533;29;20455;-76
2023/01/01 01:40:28;;;;;;;0.70;0.70;;;;;;;;;;4878462;29;20455;-76
2023/01/01 01:42:54;;;;;;;0.70;0.60;;;;;;;;;;4885079;29;20808;-76
2023/01/01 01:45:21;;;;;;;0.70;0.70;;;;;;;;;;4888362;29;20447;-76
2023/01/01 01:47:57;;;;;;;0.70;0.70;;;;;;;;;;4904524;29;20490;-72
2023/01/01 01:50:26;;;;;;;0.70;0.70;;;;;;;;;;4884100;29;21007;-74
2023/01/01 01:52:58;;;;;;;0.70;0.70;;;;;;;;;;4883508;29;20490;-71
2023/01/01 01:55:27;;;;;;;0.70;0.70;;;;;;;;;;4885702;29;20479;-72
2023/01/01 01:57:54;;;;;;;0.70;0.70;;;;;;;;;;4882504;29;20540;-73
2023/01/01 02:00:21;;;;;;;0.77;0.70;;;;;;;;;;4894760;29;20447;-71
2023/01/01 02:02:50;;;;;;;0.77;0.70;;;;;;;;;;4882932;29;20559;-72
2023/01/01 02:05:19;;;;;;;2.53;0.90;;;;;;;;;;4890505;29;20451;-72
2023/01/01 02:07:46;;;;;;;0.70;0.70;;;;;;;;;;4882828;29;20539;-73
2023/01/01 02:10:12;;;;;;;0.80;0.70;;;;;;;;;;4885228;29;20886;-72
2023/01/01 02:12:41;;;;;;;0.70;0.70;;;;;;;;;;4883495;29;20500;-72
2023/01/01 02:15:09;;;;;;;0.80;0.70;;;;;;;;;;4887455;29;20484;-72
2023/01/01 02:17:39;;;;;;;0.70;0.70;;;;;;;;;;4892650;29;20904;-73
2023/01/01 02:20:15;;;;;;;0.80;0.80;;;;;;;;;;4886902;29;20460;-73
2023/01/01 02:22:54;;;;;;;0.70;0.70;;;;;;;;;;4885457;29;20553;-72
2023/01/01 02:25:37;;;;;;;0.70;0.70;;;;;;;;;;4887161;29;20962;-72
2023/01/01 02:28:30;;;;;;;0.70;0.60;;;;;;;;;;4896362;29;20450;-76
2023/01/01 02:30:58;;;;;;;0.70;0.70;;;;;;;;;;4891541;29;20487;-73
2023/01/01 02:33:25;;;;;;;0.80;0.70;;;;;;;;;;4892907;29;20491;-72
2023/01/01 02:35:55;;;;;;;0.70;0.60;;;;;;;;;;4886413;29;20451;-72
2023/01/01 02:38:27;;;;;;;0.80;0.80;;;;;;;;;;4891459;29;20470;-72
2023/01/01 02:40:56;;;;;;;0.80;0.80;;;;;;;;;;4882476;29;20443;-74
2023/01/01 02:43:23;;;;;;;0.70;0.70;;;;;;;;;;4880563;29;20464;-73
2023/01/01 02:45:53;;;;;;;0.70;0.70;;;;;;;;;;4890192;29;20455;-72
2023/01/01 02:48:35;;;;;;;0.70;0.70;;;;;;;;;;4890252;29;20552;-72
2023/01/01 02:51:06;;;;;;;0.70;0.70;;;;;;;;;;4881010;29;20472;-71
2023/01/01 02:53:36;;;;;;;0.70;0.70;;;;;;;;;;4899869;29;20451;-75
2023/01/01 02:56:07;;;;;;;0.70;0.70;;;;;;;;;;4890391;29;20451;-72
2023/01/01 03:01:28;;;;;;;0.70;0.70;;;;;;;;;;4891300;29;20469;-71
2023/01/01 03:04:00;;;;;;;0.80;0.80;;;;;;;;;;4885743;29;20486;-72
2023/01/01 03:06:33;;;;;;;0.80;0.80;;;;;;;;;;4887071;29;20475;-72
2023/01/01 03:09:05;;;;;;;0.70;0.70;;;;;;;;;;4875330;29;20806;-74
2023/01/01 03:11:36;;;;;;;0.80;0.70;;;;;;;;;;4886238;29;20466;-73
2023/01/01 03:14:06;;;;;;;0.70;0.70;;;;;;;;;;4877005;29;20452;-73
2023/01/01 03:16:38;;;;;;;0.73;0.70;;;;;;;;;;4886270;29;20464;-74
2023/01/01 03:19:09;;;;;;;0.80;0.80;;;;;;;;;;4880735;29;20485;-71
2023/01/01 03:21:40;;;;;;;0.70;0.70;;;;;;;;;;4887422;29;20430;-72
2023/01/01 03:24:12;;;;;;;0.70;0.70;;;;;;;;;;4897013;29;20886;-72
2023/01/01 03:26:40;;;;;;;0.70;0.70;;;;;;;;;;4885200;29;21004;-74
2023/01/01 03:29:09;;;;;;;0.70;0.70;;;;;;;;;;4887763;29;20459;-72
2023/01/01 03:31:39;;;;;;;0.70;0.70;;;;;;;;;;4893875;29;20841;-72
2023/01/01 03:34:12;;;;;;;0.70;0.70;;;;;;;;;;4884396;29;20443;-73
2023/01/01 03:36:42;;;;;;;0.70;0.60;;;;;;;;;;4884431;29;20443;-72
2023/01/01 03:39:15;;;;;;;0.70;0.70;;;;;;;;;;4896679;29;20447;-73
2023/01/01 03:41:46;;;;;;;0.70;0.70;;;;;;;;;;4890159;29;20432;-73
2023/01/01 03:44:17;;;;;;;0.70;0.70;;;;;;;;;;4890718;29;20435;-72
2023/01/01 03:46:45;;;;;;;0.80;0.80;;;;;;;;;;4878692;29;20455;-73
2023/01/01 03:49:14;;;;;;;0.70;0.70;;;;;;;;;;4885391;29;20501;-71
2023/01/01 03:51:59;;;;;;;0.70;0.70;;;;;;;;;;4885375;29;20479;-72
2023/01/01 03:54:34;;;;;;;0.70;0.60;;;;;;;;;;4903811;29;20475;-72
2023/01/01 03:57:05;;;;;;;0.70;0.60;;;;;;;;;;4891638;29;20466;-73
2023/01/01 03:59:34;;;;;;;0.70;0.70;;;;;;;;;;4891802;29;20525;-71
2023/01/01 04:02:06;;;;;;;0.70;0.67;;;;;;;;;;4890390;29;20452;-72
2023/01/01 04:04:33;;;;;;;0.70;0.70;;;;;;;;;;4903538;29;20511;-73
2023/01/01 04:07:00;;;;;;;0.70;0.70;;;;;;;;;;4879210;29;20831;-73
2023/01/01 04:09:42;;;;;;;0.70;0.70;;;;;;;;;;4882040;29;20505;-73
2023/01/01 04:12:09;;;;;;;0.70;0.70;;;;;;;;;;4886901;29;21070;-73
2023/01/01 04:14:38;;;;;;;0.70;0.60;;;;;;;;;;4888625;29;20459;-73
2023/01/01 04:17:08;;;;;;;0.70;0.60;;;;;;;;;;4896743;29;20511;-72
2023/01/01 04:19:34;;;;;;;0.70;0.67;;;;;;;;;;4893852;29;20439;-74
2023/01/01 04:22:03;;;;;;;0.80;0.73;;;;;;;;;;4886280;29;20460;-74
2023/01/01 04:24:31;;;;;;;0.70;0.70;;;;;;;;;;4885534;29;20504;-72
2023/01/01 04:27:00;;;;;;;0.80;0.80;;;;;;;;;;4887598;29;20499;-72
2023/01/01 04:29:27;;;;;;;0.80;0.70;;;;;;;;;;4888113;29;20463;-72
2023/01/01 04:31:58;;;;;;;0.70;0.63;;;;;;;;;;4895072;29;20480;-72
2023/01/01 04:34:28;;;;;;;0.70;0.70;;;;;;;;;;4895394;29;20494;-71
2023/01/01 04:36:55;;;;;;;0.70;0.70;;;;;;;;;;4879381;29;20957;-72
2023/01/01 04:39:23;;;;;;;0.70;0.67;;;;;;;;;;4884685;29;20565;-72
2023/01/01 04:41:53;;;;;;;0.80;0.70;;;;;;;;;;4893726;29;20574;-72
2023/01/01 04:44:21;;;;;;;0.70;0.60;;;;;;;;;;4886423;29;20488;-72
2023/01/01 04:46:48;;;;;;;0.80;0.80;;;;;;;;;;4887664;29;20826;-71
2023/01/01 04:49:21;;;;;;;0.70;0.70;;;;;;;;;;4889160;29;20964;-73
2023/01/01 04:51:49;;;;;;;0.70;0.70;;;;;;;;;;4904546;29;20482;-71
2023/01/01 04:54:17;;;;;;;0.70;0.60;;;;;;;;;;4887695;29;20435;-73
2023/01/01 04:56:43;;;;;;;0.70;0.67;;;;;;;;;;4885392;29;20464;-73
2023/01/01 04:59:10;;;;;;;0.70;0.70;;;;;;;;;;4893738;29;20499;-72
2023/01/01 05:01:38;;;;;;;0.70;0.70;;;;;;;;;;4882132;29;20436;-72
2023/01/01 05:04:05;;;;;;;0.70;0.70;;;;;;;;;;4883304;29;20869;-73
2023/01/01 05:06:33;;;;;;;0.90;0.80;;;;;;;;;;4884931;29;20951;-72
2023/01/01 05:09:02;;;;;;;0.70;0.60;;;;;;;;;;4888661;29;20444;-71
2023/01/01 05:11:31;;;;;;;0.70;0.60;;;;;;;;;;4877910;29;20544;-71
2023/01/01 05:13:59;;;;;;;0.70;0.70;;;;;;;;;;4886540;29;20442;-72
2023/01/01 05:16:28;;;;;;;0.70;0.70;;;;;;;;;;4886339;29;20460;-72
2023/01/01 05:18:56;;;;;;;0.70;0.70;;;;;;;;;;4899408;29;20531;-74
2023/01/01 05:21:24;;;;;;;0.70;0.60;;;;;;;;;;4893023;29;20473;-72
2023/01/01 05:23:54;;;;;;;0.70;0.70;;;;;;;;;;4885172;29;20447;-73
2023/01/01 05:26:26;;;;;;;0.70;0.70;;;;;;;;;;4884810;29;20448;-73
2023/01/01 05:28:54;;;;;;;0.70;0.70;;;;;;;;;;4893402;29;20456;-72
2023/01/01 05:31:23;;;;;;;0.70;0.70;;;;;;;;;;4884331;29;20470;-72
2023/01/01 05:33:53;;;;;;;0.70;0.70;;;;;;;;;;4878674;29;20484;-73
2023/01/01 05:36:24;;;;;;;0.80;0.80;;;;;;;;;;4885565;29;20507;-72
2023/01/01 05:38:52;;;;;;;0.70;0.70;;;;;;;;;;4898766;29;20483;-75
2023/01/01 05:41:21;;;;;;;0.70;0.67;;;;;;;;;;4886009;29;20792;-73
2023/01/01 05:43:53;;;;;;;0.70;0.70;;;;;;;;;;4901387;29;20451;-72
2023/01/01 05:46:28;;;;;;;0.70;0.60;;;;;;;;;;4893868;29;20819;-72
2023/01/01 05:48:58;;;;;;;0.70;0.70;;;;;;;;;;4879215;29;20539;-71
2023/01/01 05:51:28;;;;;;;0.80;0.80;;;;;;;;;;4886250;29;20467;-71
2023/01/01 05:54:00;;;;;;;1.77;1.67;;;;;;;;;;4892061;29;20464;-73
2023/01/01 05:56:33;;;;;;;0.70;0.60;;;;;;;;;;4890142;29;20456;-71
2023/01/01 05:59:08;;;;;;;0.70;0.60;;;;;;;;;;4886619;29;20494;-73
2023/01/01 06:01:39;;;;;;;0.70;0.60;;;;;;;;;;4886544;29;20809;-72
2023/01/01 06:04:11;;;;;;;0.77;0.77;;;;;;;;;;4887000;29;20463;-72
2023/01/01 06:06:38;;;;;;;0.70;0.70;;;;;;;;;;4889026;29;20435;-72
2023/01/01 06:09:05;;;;;;;0.77;0.73;;;;;;;;;;4885542;29;20578;-73
2023/01/01 06:11:33;;;;;;;0.70;0.70;;;;;;;;;;4893510;29;20897;-73
2023/01/01 06:14:00;;;;;;;0.70;0.60;;;;;;;;;;4884430;29;20967;-74
2023/01/01 06:16:31;;;;;;;0.70;0.70;;;;;;;;;;4891849;29;20456;-74
2023/01/01 06:18:59;;;;;;;0.70;0.60;;;;;;;;;;4892218;29;20463;-72
2023/01/01 06:21:28;;;;;;;0.70;0.60;;;;;;;;;;4886486;29;20889;-73
2023/01/01 06:23:59;;;;;;;0.70;0.70;;;;;;;;;;4885366;29;20447;-76
2023/01/01 06:26:28;;;;;;;0.70;0.70;;;;;;;;;;4884407;29;20470;-73
2023/01/01 06:28:59;;;;;;;0.70;0.70;;;;;;;;;;4883749;29;20440;-72
2023/01/01 06:31:27;;;;;;;0.80;0.80;;;;;;;;;;4900884;29;20957;-73
2023/01/01 06:33:56;;;;;;;0.70;0.70;;;;;;;;;;4892109;29;20466;-75
2023/01/01 06:36:24;;;;;;;0.70;0.70;;;;;;;;;;4891478;29;20490;-73
2023/01/01 06:38:54;;;;;;;0.70;0.70;;;;;;;;;;4891355;29;20821;-73
2023/01/01 06:41:21;;;;;;;0.70;0.67;;;;;;;;;;4892795;29;20805;-73
2023/01/01 06:43:49;;;;;;;0.73;0.70;;;;;;;;;;4892300;29;20474;-73
2023/01/01 06:46:17;;;;;;;1.50;1.40;;;;;;;;;;4893077;29;20440;-73
2023/01/01 06:48:47;;;;;;;0.70;0.60;;;;;;;;;;4884851;29;20458;-73
2023/01/01 06:51:16;;;;;;;0.70;0.60;;;;;;;;;;4884987;29;20436;-72
2023/01/01 06:53:43;;;;;;;0.70;0.70;;;;;;;;;;4881675;29;20973;-73
2023/01/01 06:56:10;;;;;;;0.73;0.70;;;;;;;;;;4886687;29;20454;-73
2023/01/01 06:58:38;;;;;;;0.70;0.63;;;;;;;;;;4891767;29;20839;-74
2023/01/01 07:01:06;;;;;;;0.80;0.80;;;;;;;;;;4880182;29;20535;-72
2023/01/01 07:03:35;;;;;;;0.70;0.70;;;;;;;;;;4892650;29;20468;-72
2023/01/01 07:06:02;;;;;;;0.70;0.70;;;;;;;;;;4887740;29;20440;-72
2023/01/01 07:08:30;;;;;;;0.70;0.70;;;;;;;;;;4891192;29;20452;-72
2023/01/01 07:10:58;;;;;;;0.70;0.70;;;;;;;;;;4898167;29;20444;-72
2023/01/01 07:13:26;;;;;;;0.70;0.70;;;;;;;;;;4889794;29;20487;-72
2023/01/01 07:15:53;;;;;;;0.80;0.80;;;;;;;;;;4887807;29;20454;-73
2023/01/01 07:18:21;;;;;;;0.80;0.80;;;;;;;;;;4885220;29;20469;-73
2023/01/01 07:20:49;;;;;;;0.70;0.60;;;;;;;;;;4889656;29;20819;-73
2023/01/01 07:23:17;;;;;;;0.70;0.63;;;;;;;;;;4887566;29;21040;-72
2023/01/01 07:25:47;;;;;;;0.80;0.80;;;;;;;;;;4891363;29;20458;-73
2023/01/01 07:28:14;;;;;;;0.70;0.60;;;;;;;;;;4892917;29;20786;-72
2023/01/01 07:30:40;;;;;;;0.70;0.60;;;;;;;;;;4886720;29;20486;-72
2023/01/01 07:33:09;;;;;;;0.73;0.70;;;;;;;;;;4889799;29;20488;-72
2023/01/01 07:35:36;;;;;;;0.70;0.60;;;;;;;;;;4890342;29;20454;-73
2023/01/01 07:38:03;;;;;;;0.70;0.60;;;;;;;;;;4886926;29;20464;-73
2023/01/01 07:40:30;;;;;;;0.70;0.70;;;;;;;;;;4903156;29;20463;-72
2023/01/01 07:42:59;;;;;;;0.70;0.70;;;;;;;;;;4889633;29;20480;-73
2023/01/01 07:45:25;;;;;;;0.70;0.60;;;;;;;;;;4880145;29;20500;-73
2023/01/01 07:47:53;;;;;;;0.80;0.77;;;;;;;;;;4885320;29;20665;-74
2023/01/01 07:50:21;;;;;;;0.70;0.60;;;;;;;;;;4898090;29;21193;-70
2023/01/01 07:52:47;;;;;;;0.80;0.70;;;;;;;;;;4902720;29;20515;-73
2023/01/01 07:55:16;;;;;;;0.70;0.70;;;;;;;;;;4895376;29;20512;-72
2023/01/01 07:57:43;;;;;;;0.70;0.60;;;;;;;;;;4894918;29;20499;-71
2023/01/01 08:00:13;;;;;;;0.70;0.60;;;;;;;;;;4901600;29;20479;-73
2023/01/01 08:02:43;;;;;;;0.70;0.60;;;;;;;;;;4884327;29;20495;-72
2023/01/01 08:05:10;;;;;;;0.70;0.70;;;;;;;;;;4892795;29;20451;-72
2023/01/01 08:07:38;;;;;;;0.70;0.60;;;;;;;;;;4900909;29;20835;-73
2023/01/01 08:10:13;;;;;;;0.70;0.60;;;;;;;;;;4893506;29;21039;-75
2023/01/01 08:12:42;;;;;;;0.70;0.60;;;;;;;;;;4888174;29;20471;-73
2023/01/01 08:15:09;;;;;;;0.70;0.63;;;;;;;;;;4885515;29;20555;-74
2023/01/01 08:17:37;;;;;;;0.70;0.70;;;;;;;;;;4895784;29;20897;-73
2023/01/01 08:20:12;;;;;;;0.90;0.90;;;;;;;;;;4885888;29;21006;-73
2023/01/01 08:22:40;;;;;;;0.70;0.60;;;;;;;;;;4891308;29;20834;-73
2023/01/01 08:25:07;;;;;;;0.70;0.70;;;;;;;;;;4886570;29;20459;-74
2023/01/01 08:27:35;;;;;;;0.70;0.67;;;;;;;;;;4888008;29;20482;-73
2023/01/01 08:30:01;;;;;;;0.70;0.67;;;;;;;;;;4894327;29;20444;-73
2023/01/01 08:32:28;;;;;;;1.00;0.90;;;;;;;;;;4887859;29;20491;-72
2023/01/01 08:34:57;;;;;;;0.70;0.70;;;;;;;;;;4894365;29;20548;-72
2023/01/01 08:37:23;;;;;;;0.73;0.70;;;;;;;;;;4877543;29;20464;-72
2023/01/01 08:39:52;;;;;;;0.70;0.60;;;;;;;;;;4882489;29;20440;-72
2023/01/01 08:42:19;;;;;;;0.70;0.70;;;;;;;;;;4885716;29;20491;-72
2023/01/01 08:44:46;;;;;;;0.70;0.63;;;;;;;;;;4887057;29;20474;-74
2023/01/01 08:47:15;;;;;;;0.70;0.60;;;;;;;;;;4893686;29;20476;-73
2023/01/01 08:49:42;;;;;;;0.70;0.70;;;;;;;;;;4893505;29;20463;-73
2023/01/01 08:52:10;;;;;;;0.80;0.80;;;;;;;;;;4882396;29;20799;-71
2023/01/01 08:54:37;;;;;;;0.70;0.70;;;;;;;;;;4886692;29;20439;-72
2023/01/01 08:57:07;;;;;;;0.70;0.60;;;;;;;;;;4878593;29;20439;-73
2023/01/01 08:59:34;;;;;;;0.70;0.60;;;;;;;;;;4886764;29;20456;-71
2023/01/01 09:02:01;;;;;;;0.70;0.70;;;;;;;;;;4887973;29;20585;-73
2023/01/01 09:04:28;;;;;;;0.70;0.70;;;;;;;;;;4878636;29;20446;-73
2023/01/01 09:06:56;;;;;;;0.80;0.80;;;;;;;;;;4891919;29;20795;-72
2023/01/01 09:09:24;;;;;;;1.27;1.17;;;;;;;;;;4887355;29;20810;-73
2023/01/01 09:12:00;;;;;;;0.70;0.70;;;;;;;;;;4898800;29;20675;-72
2023/01/01 09:14:27;;;;;;;0.70;0.60;;;;;;;;;;4890846;29;20455;-73
2023/01/01 09:16:55;;;;;;;0.70;0.60;;;;;;;;;;4880123;29;20490;-73
2023/01/01 09:19:22;;;;;;;0.70;0.70;;;;;;;;;;4888996;29;20436;-73
2023/01/01 09:21:49;;;;;;;0.80;0.70;;;;;;;;;;4888611;29;20574;-74
2023/01/01 09:24:18;;;;;;;0.70;0.70;;;;;;;;;;4894235;29;20804;-73
2023/01/01 09:26:48;;;;;;;0.70;0.67;;;;;;;;;;4893610;29;20462;-73
2023/01/01 09:29:17;;;;;;;0.70;0.60;;;;;;;;;;4886407;29;20458;-72
2023/01/01 09:31:44;;;;;;;0.70;0.70;;;;;;;;;;4887734;29;20453;-72
2023/01/01 09:34:34;;;;;;;0.70;0.70;;;;;;;;;;4884603;29;20427;-72
2023/01/01 09:37:00;;;;;;;0.80;0.80;;;;;;;;;;4886714;29;20961;-72
2023/01/01 09:39:30;;;;;;;0.70;0.70;;;;;;;;;;4888487;29;20444;-72
2023/01/01 09:42:14;;;;;;;0.70;0.70;;;;;;;;;;4893589;29;20462;-72
2023/01/01 09:45:00;;;;;;;1.47;1.23;;;;;;;;;;4883205;29;20451;-74
2023/01/01 09:47:29;;;;;;;0.80;0.80;;;;;;;;;;4885900;29;20462;-72
2023/01/01 09:49:59;;;;;;;0.70;0.60;;;;;;;;;;4885931;29;21217;-72
2023/01/01 09:52:30;;;;;;;0.80;0.70;;;;;;;;;;4898608;29;20444;-73
2023/01/01 09:54:58;;;;;;;0.70;0.70;;;;;;;;;;4886186;29;20797;-72
2023/01/01 09:57:28;;;;;;;0.70;0.60;;;;;;;;;;4883966;29;20448;-71
2023/01/01 09:59:58;;;;;;;0.70;0.70;;;;;;;;;;4881657;29;20933;-73
2023/01/01 10:02:35;;;;;;;0.70;0.70;;;;;;;;;;4890681;29;20476;-72
2023/01/01 10:05:07;;;;;;;0.70;0.70;;;;;;;;;;4885375;29;20434;-71
2023/01/01 10:07:40;;;;;;;0.80;0.70;;;;;;;;;;4883288;29;20839;-72
2023/01/01 10:10:16;;;;;;;0.70;0.67;;;;;;;;;;4890986;29;20867;-72
2023/01/01 10:12:49;;;;;;;0.77;0.77;;;;;;;;;;4882473;29;20582;-72
2023/01/01 10:15:18;;;;;;;0.70;0.70;;;;;;;;;;4886470;29;20512;-75
2023/01/01 10:17:47;;;;;;;0.80;0.80;;;;;;;;;;4884300;29;20503;-74
2023/01/01 10:20:17;;;;;;;2.00;1.80;;;;;;;;;;4884195;29;20851;-72
2023/01/01 10:22:46;;;;;;;0.93;0.83;;;;;;;;;;4889618;29;20454;-74
2023/01/01 10:25:16;;;;;;;0.70;0.70;;;;;;;;;;4896130;29;20526;-72
2023/01/01 10:27:44;;;;;;;0.70;0.70;;;;;;;;;;4882303;29;20442;-73
2023/01/01 10:30:14;;;;;;;0.80;0.80;;;;;;;;;;4886020;29;20780;-72
2023/01/01 10:32:43;;;;;;;0.70;0.60;;;;;;;;;;4888476;29;20520;-74
2023/01/01 10:35:12;;;;;;;0.70;0.70;;;;;;;;;;4888682;29;20518;-72
2023/01/01 10:37:40;;;;;;;0.70;0.70;;;;;;;;;;4891511;29;20483;-73
2023/01/01 10:40:19;;;;;;;0.80;0.80;;;;;;;;;;4900298;29;20471;-73
2023/01/01 10:42:47;;;;;;;0.70;0.70;;;;;;;;;;4886785;29;20440;-72
2023/01/01 10:45:16;;;;;;;0.70;0.70;;;;;;;;;;4883170;29;20894;-72
2023/01/01 10:47:57;;;;;;;0.70;0.67;;;;;;;;;;4888778;29;20895;-72
2023/01/01 10:50:39;;;;;;;0.70;0.70;;;;;;;;;;4886488;29;20933;-72
2023/01/01 10:53:17;;;;;;;0.70;0.70;;;;;;;;;;4891807;29;21066;-74
2023/01/01 10:55:47;;;;;;;0.70;0.70;;;;;;;;;;4882233;29;20460;-73
2023/01/01 10:58:24;;;;;;;0.70;0.70;;;;;;;;;;4872133;29;20455;-72
2023/01/01 11:00:58;;;;;;;0.80;0.80;;;;;;;;;;4884307;29;20542;-72
2023/01/01 11:03:24;;;;;;;0.70;0.70;;;;;;;;;;4891330;29;20472;-73
2023/01/01 11:05:59;;;;;;;0.70;0.70;;;;;;;;;;4886809;29;20894;-72
2023/01/01 11:08:28;;;;;;;0.70;0.70;;;;;;;;;;4884017;29;20457;-72
2023/01/01 11:10:56;;;;;;;0.70;0.70;;;;;;;;;;4882858;29;20474;-72
2023/01/01 11:13:27;;;;;;;0.70;0.70;;;;;;;;;;4871661;29;20489;-72
2023/01/01 11:15:54;;;;;;;0.70;0.70;;;;;;;;;;4889558;29;20459;-74
2023/01/01 11:18:26;;;;;;;0.70;0.60;;;;;;;;;;4899615;29;20479;-73
2023/01/01 11:20:54;;;;;;;0.70;0.60;;;;;;;;;;4886120;29;20435;-71
2023/01/01 11:23:28;;;;;;;0.70;0.70;;;;;;;;;;4882385;29;20794;-72
2023/01/01 11:25:56;;;;;;;0.70;0.70;;;;;;;;;;4890772;29;20463;-72
2023/01/01 11:28:23;;;;;;;0.70;0.70;;;;;;;;;;4883137;29;20447;-72
2023/01/01 11:30:57;;;;;;;0.70;0.60;;;;;;;;;;4886307;29;20808;-72
2023/01/01 11:33:26;;;;;;;0.80;0.80;;;;;;;;;;4891669;29;20491;-72
2023/01/01 11:35:53;;;;;;;0.80;0.70;;;;;;;;;;4888432;29;20451;-73
2023/01/01 11:38:21;;;;;;;0.80;0.70;;;;;;;;;;4885688;29;20447;-72
2023/01/01 11:41:00;;;;;;;0.70;0.70;;;;;;;;;;4885635;29;20453;-73
2023/01/01 11:43:27;;;;;;;0.70;0.70;;;;;;;;;;4886054;29;20429;-73
2023/01/01 11:45:56;;;;;;;0.70;0.70;;;;;;;;;;4886444;29;20443;-73
2023/01/01 11:48:25;;;;;;;0.70;0.70;;;;;;;;;;4882497;29;20555;-72
2023/01/01 11:50:56;;;;;;;0.70;0.70;;;;;;;;;;4883354;29;20455;-72
2023/01/01 11:53:28;;;;;;;0.70;0.70;;;;;;;;;;4884536;29;20476;-72
2023/01/01 11:55:59;;;;;;;0.70;0.70;;;;;;;;;;4897830;29;20523;-73
2023/01/01 11:58:29;;;;;;;0.80;0.70;;;;;;;;;;4884074;29;20455;-71
2023/01/01 12:00:58;;;;;;;0.70;0.70;;;;;;;;;;4884396;29;20923;-72
2023/01/01 12:03:27;;;;;;;0.70;0.70;;;;;;;;;;4890407;29;20516;-72
2023/01/01 12:06:03;;;;;;;1.10;1.00;;;;;;;;;;4888109;29;20439;-72
2023/01/01 12:08:32;;;;;;;0.73;0.70;;;;;;;;;;4888066;29;20834;-71
2023/01/01 12:11:02;;;;;;;0.70;0.70;;;;;;;;;;4890108;29;20443;-73
2023/01/01 12:13:33;;;;;;;0.70;0.60;;;;;;;;;;4908182;29;20509;-72
2023/01/01 12:16:05;;;;;;;0.70;0.60;;;;;;;;;;4888092;29;20759;-73
2023/01/01 12:18:36;;;;;;;0.70;0.70;;;;;;;;;;4885932;29;20803;-73
2023/01/01 12:21:07;;;;;;;0.70;0.70;;;;;;;;;;4900826;29;20480;-73
2023/01/01 12:23:34;;;;;;;0.70;0.70;;;;;;;;;;4881163;29;20440;-71
2023/01/01 12:26:08;;;;;;;0.70;0.60;;;;;;;;;;4890244;29;20474;-73
2023/01/01 12:28:41;;;;;;;0.70;0.67;;;;;;;;;;4889699;29;20447;-71
2023/01/01 12:31:12;;;;;;;0.70;0.60;;;;;;;;;;4907305;29;20477;-72
2023/01/01 12:33:52;;;;;;;0.70;0.70;;;;;;;;;;4882221;29;21203;-72
2023/01/01 12:36:27;;;;;;;0.73;0.70;;;;;;;;;;4879471;29;20827;-72
2023/01/01 12:39:12;;;;;;;0.70;0.60;;;;;;;;;;4887369;29;20444;-71
2023/01/01 12:41:42;;;;;;;0.77;0.73;;;;;;;;;;4886292;29;20447;-72
2023/01/01 12:44:15;;;;;;;0.70;0.70;;;;;;;;;;4879279;29;20499;-70
2023/01/01 12:46:46;;;;;;;0.70;0.70;;;;;;;;;;4883893;29;20966;-72
2023/01/01 12:49:39;;;;;;;1.27;1.17;;;;;;;;;;4901391;29;20912;-73
2023/01/01 12:52:13;;;;;;;0.70;0.70;;;;;;;;;;4903611;29;20444;-72
2023/01/01 12:54:58;;;;;;;0.80;0.70;;;;;;;;;;4885890;29;20480;-72
2023/01/01 12:57:28;;;;;;;0.70;0.70;;;;;;;;;;4864603;29;20539;-72
2023/01/01 12:59:56;;;;;;;0.70;0.70;;;;;;;;;;4904939;29;20442;-73
2023/01/01 13:02:24;;;;;;;0.80;0.73;;;;;;;;;;4888162;29;20973;-73
2023/01/01 13:04:52;;;;;;;0.70;0.70;;;;;;;;;;4887622;29;20436;-72
2023/01/01 13:07:25;;;;;;;0.80;0.77;;;;;;;;;;4884189;29;20451;-73
2023/01/01 13:09:52;;;;;;;0.70;0.70;;;;;;;;;;4886921;29;21240;-72
2023/01/01 13:12:20;;;;;;;0.70;0.70;;;;;;;;;;4893447;29;20483;-72
2023/01/01 13:14:50;;;;;;;0.70;0.70;;;;;;;;;;4883132;29;20487;-72
2023/01/01 13:17:19;;;;;;;1.10;1.10;;;;;;;;;;4884732;29;20475;-72
2023/01/01 13:19:46;;;;;;;1.40;1.30;;;;;;;;;;4898321;29;20469;-74
2023/01/01 13:22:32;;;;;;;0.70;0.60;;;;;;;;;;4893675;29;21163;-73
2023/01/01 13:25:04;;;;;;;0.70;0.70;;;;;;;;;;4889947;29;20444;-73
2023/01/01 13:27:49;;;;;;;0.70;0.67;;;;;;;;;;4882532;29;20535;-73
2023/01/01 13:30:38;;;;;;;0.70;0.70;;;;;;;;;;4882480;29;20479;-76
2023/01/01 13:33:22;;;;;;;0.90;0.80;;;;;;;;;;4899352;29;20487;-72
2023/01/01 13:36:10;;;;;;;0.70;0.70;;;;;;;;;;4899306;29;20448;-71
2023/01/01 13:38:44;;;;;;;0.70;0.60;;;;;;;;;;4895674;29;20471;-71
2023/01/01 13:41:26;;;;;;;0.70;0.70;;;;;;;;;;4897086;29;20465;-74
2023/01/01 13:44:09;;;;;;;0.70;0.60;;;;;;;;;;4887304;29;20930;-71
2023/01/01 13:46:42;;;;;;;0.70;0.70;;;;;;;;;;4898960;29;20440;-72
2023/01/01 13:49:24;;;;;;;0.70;0.60;;;;;;;;;;4887067;29;20475;-71
2023/01/01 13:52:04;;;;;;;0.70;0.60;;;;;;;;;;4888193;29;20489;-71
2023/01/01 13:54:55;;;;;;;0.70;0.60;;;;;;;;;;4888436;29;20472;-73
2023/01/01 13:57:31;;;;;;;0.70;0.70;;;;;;;;;;4888372;29;20924;-72
2023/01/01 14:00:03;;;;;;;0.80;0.70;;;;;;;;;;4887016;29;20453;-71
2023/01/01 14:02:41;;;;;;;0.70;0.60;;;;;;;;;;4881817;29;20956;-71
2023/01/01 14:05:13;;;;;;;0.70;0.60;;;;;;;;;;4883209;29;20443;-73
2023/01/01 14:07:43;;;;;;;0.70;0.70;;;;;;;;;;4886584;29;20467;-73
2023/01/01 14:10:21;;;;;;;0.70;0.70;;;;;;;;;;4888209;29;20448;-72
2023/01/01 14:12:49;;;;;;;0.70;0.60;;;;;;;;;;4881675;29;20448;-73
2023/01/01 14:15:23;;;;;;;0.97;0.90;;;;;;;;;;4884235;29;21095;-73
2023/01/01 14:17:50;;;;;;;0.70;0.60;;;;;;;;;;4882390;29;20485;-76
2023/01/01 14:20:18;;;;;;;0.70;0.70;;;;;;;;;;4884100;29;20464;-72
2023/01/01 14:22:45;;;;;;;0.70;0.70;;;;;;;;;;4882550;29;20566;-73
2023/01/01 14:25:14;;;;;;;0.70;0.70;;;;;;;;;;4885280;29;20452;-73
2023/01/01 14:27:42;;;;;;;0.70;0.63;;;;;;;;;;4894300;29;20447;-74
2023/01/01 14:30:14;;;;;;;0.70;0.60;;;;;;;;;;4885056;29;20491;-72
2023/01/01 14:32:42;;;;;;;0.80;0.70;;;;;;;;;;4892649;29;20941;-72
2023/01/01 14:35:14;;;;;;;0.70;0.70;;;;;;;;;;4899041;29;20473;-71
2023/01/01 14:37:41;;;;;;;0.70;0.60;;;;;;;;;;4882503;29;20474;-71
2023/01/01 14:40:16;;;;;;;0.70;0.60;;;;;;;;;;4889969;29;21065;-73
2023/01/01 14:42:44;;;;;;;0.70;0.70;;;;;;;;;;4892213;29;20517;-71
2023/01/01 14:45:14;;;;;;;0.70;0.70;;;;;;;;;;4884999;29;20457;-72
2023/01/01 14:47:45;;;;;;;0.70;0.60;;;;;;;;;;4888929;29;20459;-70
2023/01/01 14:50:16;;;;;;;0.70;0.70;;;;;;;;;;4883165;29;20476;-73
2023/01/01 14:52:43;;;;;;;0.70;0.60;;;;;;;;;;4882774;29;20455;-73
2023/01/01 14:55:15;;;;;;;0.70;0.70;;;;;;;;;;4884948;29;20555;-73
2023/01/01 14:57:45;;;;;;;2.13;1.20;;;;;;;;;;4883981;29;20446;-72
2023/01/01 15:00:19;;;;;;;0.70;0.60;;;;;;;;;;4890313;29;20504;-73
2023/01/01 15:03:14;;;;;;;0.80;0.80;;;;;;;;;;4882335;29;20494;-72
2023/01/01 15:05:42;;;;;;;0.70;0.70;;;;;;;;;;4899442;29;20456;-72
2023/01/01 15:08:19;;;;;;;0.70;0.63;;;;;;;;;;4884390;29;20801;-72